Time;durP1;ratioP1;P1;durP2;ratioP2;P2;SDS_P1;SDS_P2;PMS_P1;PMS_P2;Temp;Humidity;BMP_temperature;BMP_pressure;BME280_temperature;BME280_humidity;BME280_pressure;Samples;Min_cycle;Max_cycle;Signal;HPM_P1;HPM_P2
2022/11/11 00:02:55;;;;;;;10.30;9.10;;;;;;;5.68;81.49;101116.27;210805;1284;141098;-70
2022/11/11 00:07:59;;;;;;;19.00;13.00;;;;;;;5.68;81.48;101117.63;210839;1292;139035;-73
2022/11/11 00:13:04;;;;;;;19.50;10.60;;;;;;;5.68;81.56;101117.09;210762;1292;140424;-71
2022/11/11 00:28:56;;;;;;;14.00;9.90;;;;;;;5.74;82.16;101102.00;210805;1297;243901;-66
2022/11/11 00:34:00;;;;;;;12.60;8.50;;;;;;;5.77;82.41;101104.64;210878;1282;139673;-70
2022/11/11 00:39:04;;;;;;;10.50;9.30;;;;;;;5.77;81.98;101106.06;210849;1297;140504;-70
2022/11/11 00:44:08;;;;;;;16.20;8.50;;;;;;;5.74;81.98;101106.86;210750;1292;140495;-69
2022/11/11 00:54:35;;;;;;;14.90;9.10;;;;;;;5.82;82.42;101109.93;210859;1292;140480;-71
2022/11/11 00:59:39;;;;;;;14.30;9.50;;;;;;;5.79;82.31;101112.73;210921;1297;140544;-70
2022/11/11 01:04:43;;;;;;;29.00;19.50;;;;;;;5.81;82.35;101113.87;210758;1297;140119;-70
2022/11/11 01:09:46;;;;;;;16.80;11.50;;;;;;;5.83;82.23;101116.11;210735;1292;142439;-69
2022/11/11 01:14:50;;;;;;;18.20;10.10;;;;;;;5.82;82.41;101118.91;210696;1284;140501;-69
2022/11/11 01:19:53;;;;;;;10.30;8.50;;;;;;;5.74;82.17;101110.11;210753;1292;141041;-68
2022/11/11 01:24:57;;;;;;;13.10;7.80;;;;;;;5.66;82.34;101106.67;210939;1290;140331;-70
2022/11/11 01:30:00;;;;;;;12.50;9.10;;;;;;;5.65;82.30;101095.05;210789;1291;140908;-69
2022/11/11 01:35:05;;;;;;;15.70;9.20;;;;;;;5.68;82.45;101098.24;210647;1290;140953;-68
2022/11/11 01:40:09;;;;;;;14.10;9.50;;;;;;;5.74;83.10;101101.64;210812;1292;141274;-69
2022/11/11 01:45:41;;;;;;;12.90;9.40;;;;;;;5.87;83.52;101095.98;210708;1290;140212;-70
2022/11/11 01:50:45;;;;;;;13.10;10.40;;;;;;;5.96;83.28;101093.21;210832;1282;140699;-71
2022/11/11 01:55:49;;;;;;;15.30;11.30;;;;;;;6.00;83.36;101093.05;208479;1295;140194;-69
2022/11/11 02:00:53;;;;;;;17.40;10.50;;;;;;;6.05;83.69;101087.40;209954;1292;140531;-69
2022/11/11 02:05:57;;;;;;;20.30;9.80;;;;;;;6.07;83.73;101082.06;207262;1299;141145;-68
2022/11/11 02:14:34;;;;;;;15.30;9.80;;;;;;;6.12;83.87;101077.27;207954;1283;140312;-69
2022/11/11 02:16:39;;;;;;;14.80;10.70;;;;;;;6.19;84.23;101087.62;209410;1293;140516;-68
2022/11/11 02:21:55;;;;;;;16.30;9.50;;;;;;;6.19;83.77;101086.13;210652;1293;141130;-69
2022/11/11 02:27:00;;;;;;;20.80;15.40;;;;;;;6.15;83.70;101095.97;209092;1290;142221;-69
2022/11/11 02:32:04;;;;;;;20.30;13.70;;;;;;;6.18;83.78;101101.63;208532;1283;141386;-69
2022/11/11 02:37:09;;;;;;;15.30;11.80;;;;;;;6.21;83.85;101108.86;210905;1292;140266;-69
2022/11/11 02:42:17;;;;;;;15.30;9.40;;;;;;;6.20;83.68;101115.84;210660;1292;139861;-69
2022/11/11 02:47:21;;;;;;;24.60;10.60;;;;;;;6.18;83.58;101123.20;209372;1291;141873;-68
2022/11/11 02:52:24;;;;;;;15.40;11.10;;;;;;;6.21;83.27;101118.79;207476;1295;141574;-70
2022/11/11 02:57:29;;;;;;;14.10;9.10;;;;;;;6.19;83.73;101116.70;209000;1288;141448;-68
2022/11/11 03:02:33;;;;;;;13.80;10.00;;;;;;;6.17;83.62;101102.61;211152;1288;139554;-69
2022/11/11 03:07:36;;;;;;;11.80;9.10;;;;;;;6.17;83.74;101099.84;211000;1289;140709;-69
2022/11/11 03:12:40;;;;;;;20.10;10.80;;;;;;;6.23;84.37;101100.51;210843;1289;140329;-70
2022/11/11 03:17:44;;;;;;;12.50;8.80;;;;;;;6.31;84.32;101103.85;211160;1289;141713;-69
2022/11/11 03:23:03;;;;;;;15.70;10.10;;;;;;;6.41;84.69;101111.67;211086;1290;140977;-69
2022/11/11 03:28:11;;;;;;;14.80;8.90;;;;;;;6.50;84.82;101114.59;211115;1292;140541;-69
2022/11/11 03:33:16;;;;;;;15.00;9.40;;;;;;;6.57;84.69;101127.61;210947;1283;140096;-71
2022/11/11 03:38:23;;;;;;;11.40;8.10;;;;;;;6.61;84.65;101128.15;210725;1293;140496;-69
2022/11/11 03:43:32;;;;;;;19.60;8.90;;;;;;;6.63;84.50;101129.54;210984;1295;234009;-69
2022/11/11 03:48:36;;;;;;;17.30;9.30;;;;;;;6.69;84.70;101133.05;211028;1290;143575;-69
2022/11/11 03:53:39;;;;;;;22.60;11.70;;;;;;;6.75;84.91;101141.92;210802;1284;141539;-69
2022/11/11 03:58:43;;;;;;;16.00;10.20;;;;;;;6.82;84.68;101142.91;210673;1297;140426;-71
2022/11/11 04:30:43;;;;;;;14.30;9.50;;;;;;;6.91;84.47;101160.35;210910;1292;141429;-69
2022/11/11 04:35:50;;;;;;;16.70;8.80;;;;;;;6.94;84.72;101157.55;209095;1284;140029;-68
2022/11/11 04:41:03;;;;;;;13.90;10.50;;;;;;;6.99;84.71;101159.85;210534;1287;142158;-69
2022/11/11 04:46:06;;;;;;;12.10;10.10;;;;;;;7.00;84.71;101160.80;211277;1275;139790;-70
2022/11/11 04:51:10;;;;;;;15.40;10.50;;;;;;;6.96;84.36;101156.65;210485;1284;141011;-69
2022/11/11 05:12:22;;;;;;;24.10;10.50;;;;;;;6.97;84.60;101165.55;210804;1289;345514;-70
2022/11/11 05:22:48;;;;;;;16.70;9.30;;;;;;;6.89;84.31;101168.83;210779;1295;141374;-71
2022/11/11 05:27:52;;;;;;;13.90;8.80;;;;;;;6.90;84.22;101156.62;211091;1297;140267;-70
2022/11/11 05:32:56;;;;;;;13.70;9.30;;;;;;;6.91;84.52;101153.86;210912;1297;140124;-70
2022/11/11 05:38:20;;;;;;;16.10;9.80;;;;;;;6.90;84.28;101151.52;209533;1288;139762;-69
2022/11/11 05:43:24;;;;;;;24.30;11.10;;;;;;;6.89;84.30;101157.16;208830;1291;140518;-69
2022/11/11 05:48:29;;;;;;;17.10;8.50;;;;;;;6.88;84.55;101162.36;210641;1296;141163;-69
2022/11/11 05:53:33;;;;;;;15.80;9.60;;;;;;;6.94;84.51;101167.80;211003;1297;140972;-69
2022/11/11 05:58:36;;;;;;;12.90;10.30;;;;;;;7.00;84.49;101163.25;210849;1283;141040;-69
2022/11/11 06:03:40;;;;;;;20.20;10.30;;;;;;;6.99;84.33;101158.63;211118;1292;139546;-71
2022/11/11 06:08:44;;;;;;;14.70;8.90;;;;;;;7.01;84.37;101143.66;209125;1296;141067;-68
2022/11/11 06:13:48;;;;;;;20.80;8.50;;;;;;;7.03;84.29;101142.90;209111;1282;243602;-70
2022/11/11 06:18:52;;;;;;;14.30;9.30;;;;;;;7.07;84.56;101152.84;210469;1283;141295;-70
2022/11/11 06:23:56;;;;;;;15.10;9.50;;;;;;;7.13;84.39;101156.65;211018;1289;139926;-70
2022/11/11 06:29:00;;;;;;;14.50;9.40;;;;;;;7.21;84.52;101155.36;211029;1291;140638;-69
2022/11/11 06:34:03;;;;;;;15.90;9.20;;;;;;;7.28;84.36;101158.63;211115;1293;139943;-68
2022/11/11 06:39:07;;;;;;;18.10;8.70;;;;;;;7.37;84.34;101162.52;211013;1289;140542;-69
2022/11/11 06:44:10;;;;;;;12.40;9.90;;;;;;;7.48;84.24;101160.66;209125;1283;140614;-69
2022/11/11 06:49:14;;;;;;;12.70;9.40;;;;;;;7.58;84.51;101165.00;211072;1285;140261;-71
2022/11/11 06:54:17;;;;;;;15.90;9.00;;;;;;;7.68;84.43;101170.98;208531;1292;139596;-70
2022/11/11 06:59:21;;;;;;;15.80;9.80;;;;;;;7.73;84.30;101167.67;210313;1288;141684;-70
2022/11/11 07:04:24;;;;;;;17.50;9.70;;;;;;;7.84;84.39;101162.61;211020;1289;140792;-70
2022/11/11 07:09:28;;;;;;;12.70;9.40;;;;;;;7.94;84.19;101138.58;211255;1295;141583;-70
2022/11/11 07:14:33;;;;;;;12.90;10.20;;;;;;;8.04;84.27;101144.09;211014;1288;141080;-70
2022/11/11 07:19:36;;;;;;;13.20;8.80;;;;;;;8.14;84.15;101148.33;210746;1292;142456;-70
2022/11/11 07:24:40;;;;;;;16.50;9.10;;;;;;;8.24;83.88;101159.03;210787;1292;141308;-69
2022/11/11 07:29:43;;;;;;;14.40;9.20;;;;;;;8.35;83.95;101153.10;210893;1293;142193;-70
2022/11/11 07:34:49;;;;;;;11.80;7.70;;;;;;;8.51;83.88;101156.86;210978;1297;140999;-69
2022/11/11 07:39:54;;;;;;;15.10;9.20;;;;;;;8.68;83.72;101158.61;210812;1300;140913;-69
2022/11/11 07:44:58;;;;;;;11.90;7.40;;;;;;;8.82;83.54;101149.59;210913;1292;140968;-71
2022/11/11 07:50:07;;;;;;;8.80;6.70;;;;;;;9.01;83.49;101149.42;210775;1296;141701;-70
2022/11/11 07:55:10;;;;;;;12.80;7.70;;;;;;;9.16;83.55;101144.24;210771;1288;160300;-72
2022/11/11 08:00:15;;;;;;;15.20;8.40;;;;;;;9.36;83.51;101147.83;210737;1292;140417;-69
2022/11/11 08:05:19;;;;;;;14.70;7.50;;;;;;;9.67;83.42;101156.54;210692;1292;140889;-70
2022/11/11 08:10:22;;;;;;;10.30;7.20;;;;;;;9.88;83.14;101166.09;209602;1289;140601;-70
2022/11/11 08:15:27;;;;;;;16.30;7.10;;;;;;;10.05;82.77;101173.14;209440;1292;139875;-72
2022/11/11 08:20:31;;;;;;;10.10;7.70;;;;;;;10.14;82.54;101184.94;209069;1296;139943;-72
2022/11/11 08:25:35;;;;;;;10.70;6.70;;;;;;;10.19;82.33;101188.72;210830;1299;141739;-72
2022/11/11 08:30:39;;;;;;;12.50;8.10;;;;;;;10.29;82.00;101190.67;210307;1292;141690;-73
2022/11/11 08:35:44;;;;;;;12.20;7.30;;;;;;;10.32;81.37;101192.71;207663;1283;142102;-73
2022/11/11 08:40:49;;;;;;;15.60;7.40;;;;;;;10.38;81.69;101186.54;207591;1282;141466;-71
2022/11/11 08:45:54;;;;;;;13.10;6.50;;;;;;;10.48;81.65;101193.14;209444;1292;140061;-72
2022/11/11 08:50:58;;;;;;;16.40;7.20;;;;;;;10.53;81.33;101194.77;207740;1299;141177;-69
2022/11/11 08:56:02;;;;;;;11.60;6.90;;;;;;;10.66;81.11;101186.78;207875;1295;141022;-70
2022/11/11 09:01:12;;;;;;;15.50;6.90;;;;;;;10.76;81.29;101190.41;208927;1288;140200;-70
2022/11/11 09:06:16;;;;;;;7.70;4.90;;;;;;;10.83;81.03;101193.60;208597;1289;141820;-68
2022/11/11 09:11:20;;;;;;;13.30;6.60;;;;;;;10.90;80.78;101205.08;209727;1299;140882;-70
2022/11/11 09:16:24;;;;;;;8.10;5.30;;;;;;;10.93;80.50;101204.76;210709;1297;141789;-69
2022/11/11 09:21:28;;;;;;;9.50;6.40;;;;;;;10.97;80.32;101195.99;210747;1299;140967;-73
2022/11/11 09:26:32;;;;;;;10.40;6.00;;;;;;;11.04;79.94;101187.56;210730;1295;140095;-71
2022/11/11 09:31:36;;;;;;;10.60;5.20;;;;;;;10.99;79.68;101183.80;210869;1288;140728;-73
2022/11/11 09:36:49;;;;;;;10.30;6.50;;;;;;;10.98;79.68;101185.48;210943;1299;140819;-71
2022/11/11 09:42:42;;;;;;;12.10;7.20;;;;;;;11.06;79.64;101192.09;210863;1297;236534;-73
2022/11/11 09:47:56;;;;;;;14.60;7.30;;;;;;;11.14;79.80;101186.73;210851;1298;139729;-71
2022/11/11 09:53:23;;;;;;;10.10;5.40;;;;;;;11.18;79.41;101188.75;210729;1298;140372;-70
2022/11/11 09:58:36;;;;;;;5.10;4.20;;;;;;;11.20;79.13;101188.02;210404;1298;141076;-69
2022/11/11 10:03:48;;;;;;;8.90;5.10;;;;;;;11.12;78.85;101186.64;207554;1291;140638;-70
2022/11/11 10:09:05;;;;;;;9.20;5.30;;;;;;;11.12;79.18;101180.11;207746;1296;139726;-70
2022/11/11 10:14:10;;;;;;;7.70;5.70;;;;;;;11.16;79.03;101175.65;210874;1292;140745;-70
2022/11/11 10:19:35;;;;;;;10.80;5.30;;;;;;;11.15;78.93;101169.86;210667;1298;141714;-67
2022/11/11 10:24:43;;;;;;;12.30;6.80;;;;;;;11.18;79.01;101163.50;209754;1292;140399;-68
2022/11/11 10:29:53;;;;;;;10.40;5.50;;;;;;;11.18;78.75;101158.28;209944;1289;141675;-75
2022/11/11 10:35:11;;;;;;;9.20;5.90;;;;;;;11.25;78.86;101159.41;208272;1291;140357;-71
2022/11/11 10:40:28;;;;;;;8.80;4.60;;;;;;;11.23;78.67;101165.61;210658;1292;141335;-72
2022/11/11 10:45:45;;;;;;;6.30;4.60;;;;;;;11.28;78.56;101166.27;210880;1295;140593;-72
2022/11/11 10:50:50;;;;;;;;;;;;;;;11.36;78.56;101168.48;210711;1292;140038;-71
2022/11/11 10:56:16;;;;;;;7.30;4.80;;;;;;;11.38;78.62;101164.45;211485;1284;126326;-70
2022/11/11 11:01:50;;;;;;;7.80;5.80;;;;;;;11.41;78.01;101160.23;210924;1292;141297;-71
2022/11/11 11:06:56;;;;;;;15.50;6.00;;;;;;;11.40;78.16;101163.84;210887;1297;140232;-70
2022/11/11 11:12:08;;;;;;;10.50;5.80;;;;;;;11.45;78.14;101164.05;207723;1291;141781;-71
2022/11/11 11:17:21;;;;;;;14.80;5.60;;;;;;;11.51;78.09;101151.89;210380;1285;140797;-70
2022/11/11 11:22:45;;;;;;;13.00;5.10;;;;;;;11.58;77.94;101140.43;210824;1297;139986;-70
2022/11/11 11:28:07;;;;;;;6.20;4.30;;;;;;;11.67;77.86;101134.27;210789;1292;139996;-70
2022/11/11 11:33:11;;;;;;;13.50;5.90;;;;;;;11.75;77.95;101133.91;210673;1275;141217;-70
2022/11/11 11:38:15;;;;;;;6.00;4.90;;;;;;;11.80;77.74;101123.36;210939;1292;142134;-72
2022/11/11 11:43:32;;;;;;;7.90;4.70;;;;;;;11.80;77.43;101115.76;211090;1282;141154;-71
2022/11/11 11:48:54;;;;;;;10.60;6.30;;;;;;;11.71;77.27;101111.95;210930;1292;141113;-71
2022/11/11 11:54:36;;;;;;;7.20;4.40;;;;;;;11.69;77.28;101112.52;210849;1292;245498;-70
2022/11/11 11:59:50;;;;;;;7.60;5.40;;;;;;;11.65;77.26;101110.16;210841;1292;141136;-70
2022/11/11 12:04:58;;;;;;;7.00;4.00;;;;;;;11.64;77.32;101111.64;210863;1292;139664;-70
2022/11/11 12:10:20;;;;;;;7.50;4.80;;;;;;;11.61;76.84;101109.11;211018;1293;141021;-71
2022/11/11 12:15:35;;;;;;;9.40;3.90;;;;;;;11.59;77.41;101103.98;210922;1284;140482;-70
2022/11/11 12:21:03;;;;;;;8.50;4.10;;;;;;;11.62;77.33;101109.09;208823;1298;139235;-70
2022/11/11 12:26:18;;;;;;;6.20;3.30;;;;;;;11.61;77.07;101115.52;208950;1283;142697;-70
2022/11/11 12:31:35;;;;;;;12.20;6.10;;;;;;;11.63;77.16;101110.32;207399;1290;140736;-70
2022/11/11 12:37:03;;;;;;;8.70;4.40;;;;;;;11.70;77.23;101107.07;207502;1276;140467;-71
2022/11/11 12:42:31;;;;;;;10.00;3.50;;;;;;;11.72;77.04;101113.06;207537;1283;140170;-70
2022/11/11 12:48:12;;;;;;;8.80;4.00;;;;;;;11.73;76.69;101116.89;208659;1282;140841;-71
2022/11/11 12:53:19;;;;;;;8.30;4.50;;;;;;;11.76;76.82;101119.86;210817;1292;140323;-69
2022/11/11 12:58:36;;;;;;;14.90;3.90;;;;;;;11.82;76.63;101120.49;210934;1297;139794;-71
2022/11/11 13:04:06;;;;;;;6.80;5.20;;;;;;;11.82;76.33;101125.09;208651;1291;140509;-69
2022/11/11 13:09:56;;;;;;;7.70;3.70;;;;;;;11.83;76.08;101131.38;210649;1298;140331;-71
2022/11/11 13:15:02;;;;;;;4.20;2.90;;;;;;;11.85;76.15;101121.50;210638;1284;139697;-70
2022/11/11 13:20:17;;;;;;;8.60;4.10;;;;;;;11.84;76.13;101118.63;210618;1298;140062;-71
2022/11/11 13:25:30;;;;;;;9.00;3.90;;;;;;;11.83;75.73;101117.33;210531;1291;141198;-71
2022/11/11 13:30:55;;;;;;;16.20;4.20;;;;;;;11.83;75.69;101114.61;210579;1292;141547;-70
2022/11/11 13:36:06;;;;;;;10.40;4.60;;;;;;;11.80;75.86;101111.11;210686;1292;244298;-71
2022/11/11 13:41:19;;;;;;;6.30;3.90;;;;;;;11.76;75.60;101119.86;210557;1295;139852;-71
2022/11/11 13:46:39;;;;;;;6.50;3.00;;;;;;;11.66;75.30;101127.24;210886;1292;142306;-70
2022/11/11 13:52:03;;;;;;;6.50;4.00;;;;;;;11.64;75.35;101135.75;210827;1292;226201;-70
2022/11/11 13:57:16;;;;;;;11.50;4.40;;;;;;;11.54;75.27;101134.02;210605;1292;139428;-70
2022/11/11 14:02:22;;;;;;;5.90;4.40;;;;;;;11.46;75.12;101134.76;210660;1291;140030;-70
2022/11/11 14:07:43;;;;;;;9.40;4.80;;;;;;;11.36;75.14;101133.39;210819;1284;140706;-72
2022/11/11 14:12:51;;;;;;;8.20;5.50;;;;;;;11.32;75.28;101137.96;210897;1290;140396;-70
2022/11/11 14:17:56;;;;;;;9.40;5.00;;;;;;;11.24;75.06;101133.12;210426;1282;140265;-69
2022/11/11 14:23:35;;;;;;;9.50;4.80;;;;;;;11.17;75.07;101131.96;210837;1291;245900;-70
2022/11/11 14:28:58;;;;;;;11.70;5.70;;;;;;;11.05;75.14;101129.27;210808;1292;141110;-70
2022/11/11 14:34:50;;;;;;;14.00;6.50;;;;;;;11.00;75.34;101131.55;211049;1292;140396;-70
2022/11/11 14:39:57;;;;;;;4.70;3.70;;;;;;;10.88;75.30;101129.39;210084;1297;140117;-70
2022/11/11 14:45:03;;;;;;;9.50;5.20;;;;;;;10.76;75.41;101133.95;207736;1285;141075;-72
2022/11/11 14:50:29;;;;;;;10.20;4.60;;;;;;;10.72;75.71;101136.36;207355;1288;140887;-71
2022/11/11 14:55:38;;;;;;;11.00;5.90;;;;;;;10.64;75.62;101143.79;209718;1288;140019;-71
2022/11/11 15:00:50;;;;;;;7.90;4.70;;;;;;;10.52;75.68;101139.22;210731;1292;141054;-70
2022/11/11 15:06:02;;;;;;;9.60;5.10;;;;;;;10.43;75.82;101137.05;210835;1292;151432;-70
2022/11/11 15:11:48;;;;;;;18.50;6.70;;;;;;;10.41;75.70;101143.77;210763;1292;141117;-70
2022/11/11 15:17:18;;;;;;;9.50;6.10;;;;;;;10.40;76.08;101149.71;207574;1285;140643;-70
2022/11/11 15:22:38;;;;;;;9.80;6.50;;;;;;;10.40;76.23;101155.30;207776;1285;139715;-70
2022/11/11 15:28:01;;;;;;;9.40;6.20;;;;;;;10.33;76.44;101155.85;210870;1299;243367;-70
2022/11/11 15:33:33;;;;;;;9.20;5.50;;;;;;;10.30;76.12;101161.09;210887;1291;141617;-70
2022/11/11 15:38:40;;;;;;;9.60;5.30;;;;;;;10.27;76.40;101166.52;210899;1281;141017;-71
2022/11/11 15:43:46;;;;;;;18.80;6.40;;;;;;;10.24;76.36;101164.08;210908;1292;141203;-71
2022/11/11 15:48:50;;;;;;;14.30;7.40;;;;;;;10.19;76.43;101168.27;210742;1292;139644;-70
2022/11/11 15:54:17;;;;;;;9.00;6.40;;;;;;;10.18;76.37;101174.77;210725;1285;139574;-70
2022/11/11 15:59:30;;;;;;;10.10;5.70;;;;;;;10.13;76.31;101168.89;210710;1292;141670;-72
2022/11/11 16:04:34;;;;;;;11.90;8.00;;;;;;;10.10;76.41;101170.33;210411;1283;248648;-71
2022/11/11 16:10:06;;;;;;;8.80;7.60;;;;;;;10.04;76.30;101185.48;210922;1290;140869;-70
2022/11/11 16:15:27;;;;;;;17.30;7.60;;;;;;;9.98;76.48;101188.09;208123;1291;140460;-71
2022/11/11 16:20:45;;;;;;;15.00;8.10;;;;;;;9.97;76.73;101185.21;210680;1292;210877;-70
2022/11/11 16:25:52;;;;;;;10.80;7.20;;;;;;;9.98;76.79;101177.73;210787;1299;141545;-72
2022/11/11 16:31:18;;;;;;;16.80;7.40;;;;;;;10.02;76.91;101179.06;210613;1292;140545;-71
2022/11/11 16:36:23;;;;;;;9.00;6.50;;;;;;;10.04;76.92;101184.85;210913;1290;141894;-70
2022/11/11 16:41:31;;;;;;;18.60;8.40;;;;;;;10.07;77.22;101186.60;207495;1285;141908;-70
2022/11/11 16:46:40;;;;;;;15.20;8.80;;;;;;;10.13;77.12;101182.59;208870;1291;140954;-70
2022/11/11 16:51:49;;;;;;;24.60;9.30;;;;;;;10.14;77.08;101187.40;210680;1292;141665;-69
2022/11/11 16:56:57;;;;;;;17.90;8.80;;;;;;;10.16;76.95;101186.99;208112;1282;139827;-69
2022/11/11 17:02:02;;;;;;;13.30;8.00;;;;;;;10.12;77.07;101190.05;209441;1278;141792;-70
2022/11/11 17:07:06;;;;;;;14.60;8.20;;;;;;;10.15;77.11;101196.99;209968;1291;141725;-70
2022/11/11 17:12:12;;;;;;;19.00;12.10;;;;;;;10.20;77.28;101208.83;207042;1282;491082;-69
2022/11/11 17:17:16;;;;;;;19.50;9.40;;;;;;;10.23;77.15;101212.70;208921;1283;141247;-70
2022/11/11 17:22:22;;;;;;;16.50;9.00;;;;;;;10.22;77.06;101203.96;210807;1283;142255;-70
2022/11/11 17:27:31;;;;;;;20.20;10.20;;;;;;;10.21;76.94;101206.83;210628;1292;141288;-70
2022/11/11 17:32:37;;;;;;;17.10;9.20;;;;;;;10.21;77.15;101208.21;210782;1292;246633;-70
2022/11/11 17:37:43;;;;;;;24.60;11.60;;;;;;;10.12;77.08;101215.67;210876;1292;141577;-70
2022/11/11 17:42:48;;;;;;;15.50;10.90;;;;;;;10.12;77.44;101215.18;210661;1278;141047;-70
2022/11/11 17:47:54;;;;;;;16.30;9.10;;;;;;;10.15;77.30;101223.52;210559;1285;140897;-70
2022/11/11 17:52:59;;;;;;;24.70;11.40;;;;;;;10.19;77.20;101229.73;210680;1291;141028;-70
2022/11/11 17:58:04;;;;;;;26.50;14.90;;;;;;;10.21;77.05;101231.84;210808;1290;141757;-70
2022/11/11 18:03:09;;;;;;;33.80;14.10;;;;;;;10.20;77.39;101228.55;210719;1292;140641;-70
2022/11/11 18:08:14;;;;;;;22.20;12.20;;;;;;;10.22;77.39;101227.86;210774;1292;141055;-70
2022/11/11 18:13:18;;;;;;;17.40;9.50;;;;;;;10.21;77.24;101219.16;210796;1291;140925;-70
2022/11/11 18:18:22;;;;;;;16.50;11.60;;;;;;;10.21;77.12;101221.66;210935;1284;141220;-70
2022/11/11 18:23:30;;;;;;;13.70;9.10;;;;;;;10.24;77.23;101226.81;210806;1292;140495;-70
2022/11/11 18:28:37;;;;;;;25.30;11.40;;;;;;;10.22;77.39;101229.55;210796;1292;141300;-70
2022/11/11 18:33:46;;;;;;;18.10;10.90;;;;;;;10.21;77.40;101235.20;210704;1292;140204;-70
2022/11/11 18:38:50;;;;;;;16.80;12.10;;;;;;;10.21;77.36;101235.20;210767;1282;141045;-70
2022/11/11 18:43:54;;;;;;;20.50;12.50;;;;;;;10.26;77.50;101243.23;210187;1291;140432;-69
2022/11/11 18:49:01;;;;;;;19.30;11.90;;;;;;;10.28;77.67;101253.13;210874;1292;140104;-70
2022/11/11 18:54:07;;;;;;;25.80;12.30;;;;;;;10.26;77.79;101253.43;210515;1292;139970;-70
2022/11/11 18:59:14;;;;;;;26.30;11.70;;;;;;;10.23;77.68;101251.85;209035;1283;140811;-71
2022/11/11 19:04:18;;;;;;;23.50;13.30;;;;;;;10.22;77.71;101247.33;207565;1276;141135;-71
2022/11/11 19:09:23;;;;;;;18.40;12.10;;;;;;;10.20;77.78;101243.30;207684;1288;140358;-71
2022/11/11 19:14:27;;;;;;;25.30;13.00;;;;;;;10.13;77.76;101244.53;210773;1295;140595;-71
2022/11/11 19:19:31;;;;;;;23.00;13.40;;;;;;;10.09;77.87;101246.36;210677;1291;140160;-71
2022/11/11 19:24:37;;;;;;;25.70;13.90;;;;;;;10.06;77.63;101245.13;209777;1283;140319;-71
2022/11/11 19:29:41;;;;;;;20.60;13.20;;;;;;;10.01;77.38;101251.48;210945;1288;141361;-72
2022/11/11 19:34:45;;;;;;;19.10;11.90;;;;;;;9.95;77.85;101253.96;211057;1292;139903;-71
2022/11/11 19:39:49;;;;;;;20.10;11.70;;;;;;;9.86;77.27;101254.39;210772;1297;139715;-71
2022/11/11 19:44:54;;;;;;;27.50;11.80;;;;;;;9.83;77.35;101253.70;210627;1292;141285;-71
2022/11/11 19:49:58;;;;;;;25.90;12.50;;;;;;;9.80;77.47;101253.31;210722;1293;140883;-71
2022/11/11 19:55:03;;;;;;;23.30;14.30;;;;;;;9.73;77.17;101255.86;210688;1292;139954;-72
2022/11/11 20:00:07;;;;;;;22.50;12.90;;;;;;;9.59;77.31;101255.88;210789;1292;140273;-73
2022/11/11 20:05:14;;;;;;;20.20;13.70;;;;;;;9.45;77.39;101265.25;211028;1292;142376;-72
2022/11/11 20:10:19;;;;;;;24.20;13.40;;;;;;;9.35;77.29;101279.21;210950;1292;140851;-69
2022/11/11 20:15:22;;;;;;;22.40;13.30;;;;;;;9.33;77.47;101295.77;210711;1292;140650;-72
2022/11/11 20:20:27;;;;;;;21.50;12.80;;;;;;;9.29;77.58;101297.85;210499;1285;141164;-69
2022/11/11 20:25:31;;;;;;;23.90;12.40;;;;;;;9.21;77.60;101293.89;210479;1291;140436;-69
2022/11/11 20:30:35;;;;;;;20.00;13.20;;;;;;;9.12;77.33;101291.98;210676;1292;140259;-73
2022/11/11 20:35:40;;;;;;;27.60;14.70;;;;;;;9.00;77.05;101287.52;208467;1275;140143;-72
2022/11/11 20:40:44;;;;;;;17.60;12.20;;;;;;;8.86;77.20;101288.29;211042;1276;140692;-71
2022/11/11 20:45:48;;;;;;;28.50;13.50;;;;;;;8.68;77.01;101289.50;210824;1295;140229;-71
2022/11/11 20:51:10;;;;;;;17.90;10.90;;;;;;;8.41;76.70;101296.55;209852;1291;140861;-70
2022/11/11 20:56:16;;;;;;;17.50;11.30;;;;;;;8.18;76.56;101295.34;207591;1292;140580;-74
2022/11/11 21:01:27;;;;;;;21.40;11.10;;;;;;;8.02;76.73;101292.17;207468;1292;142541;-73
2022/11/11 21:06:34;;;;;;;19.50;10.90;;;;;;;7.83;76.74;101294.73;210014;1291;139645;-72
2022/11/11 21:11:39;;;;;;;22.80;11.60;;;;;;;7.61;77.00;101294.60;207593;1283;141346;-71
2022/11/11 21:16:43;;;;;;;15.20;11.40;;;;;;;7.45;76.79;101293.28;207584;1291;141741;-69
2022/11/11 21:21:48;;;;;;;17.30;10.30;;;;;;;7.29;77.15;101288.14;208095;1293;140771;-69
2022/11/11 21:26:52;;;;;;;15.00;10.10;;;;;;;7.21;77.22;101283.23;210714;1292;141830;-69
2022/11/11 21:32:00;;;;;;;17.20;10.30;;;;;;;7.04;77.15;101286.34;210855;1287;139345;-71
2022/11/11 21:37:05;;;;;;;17.60;12.40;;;;;;;6.90;77.22;101289.52;210846;1289;140002;-67
2022/11/11 21:42:09;;;;;;;21.80;13.40;;;;;;;6.77;77.20;101287.95;210772;1298;140508;-71
2022/11/11 21:47:14;;;;;;;26.80;14.20;;;;;;;6.70;77.49;101298.30;210850;1292;140389;-68
2022/11/11 21:52:18;;;;;;;27.00;17.00;;;;;;;6.60;77.34;101298.16;210681;1294;140122;-70
2022/11/11 21:57:22;;;;;;;20.70;14.60;;;;;;;6.43;77.17;101291.85;210747;1291;139682;-70
2022/11/11 22:02:27;;;;;;;19.20;12.60;;;;;;;6.29;77.37;101285.55;210798;1292;139997;-73
2022/11/11 22:07:30;;;;;;;25.60;14.90;;;;;;;6.19;77.28;101284.94;210731;1292;140173;-68
2022/11/11 22:12:34;;;;;;;22.20;14.70;;;;;;;6.12;77.44;101288.04;210874;1292;142480;-69
2022/11/11 22:17:38;;;;;;;25.60;14.40;;;;;;;6.03;77.42;101286.89;207591;1285;141604;-72
2022/11/11 22:22:43;;;;;;;27.10;16.70;;;;;;;5.86;77.09;101284.47;207758;1284;140228;-68
2022/11/11 22:27:46;;;;;;;24.40;17.40;;;;;;;5.71;77.34;101279.41;210530;1293;140188;-72
2022/11/11 22:32:53;;;;;;;26.80;15.60;;;;;;;5.59;77.18;101279.79;210934;1283;140345;-68
2022/11/11 22:37:57;;;;;;;30.10;16.70;;;;;;;5.48;77.35;101282.47;210799;1289;141046;-71
2022/11/11 22:43:01;;;;;;;26.30;16.10;;;;;;;5.39;77.68;101284.05;209404;1275;140613;-70
2022/11/11 22:48:05;;;;;;;26.00;20.00;;;;;;;5.30;77.94;101278.54;207698;1294;139234;-70
2022/11/11 22:53:09;;;;;;;26.70;16.10;;;;;;;5.13;77.58;101269.58;207557;1285;139474;-69
2022/11/11 22:58:13;;;;;;;30.40;18.30;;;;;;;4.96;77.56;101274.66;208858;1293;139998;-69
2022/11/11 23:03:17;;;;;;;28.70;17.90;;;;;;;4.84;77.88;101278.36;210755;1297;141757;-69
2022/11/11 23:08:20;;;;;;;37.40;16.90;;;;;;;4.80;78.22;101282.20;210963;1285;140891;-68
2022/11/11 23:13:24;;;;;;;30.60;18.90;;;;;;;4.77;78.00;101278.09;210952;1282;141248;-67
2022/11/11 23:18:28;;;;;;;34.50;19.00;;;;;;;4.67;78.08;101277.75;210304;1290;140715;-70
2022/11/11 23:23:34;;;;;;;23.30;16.00;;;;;;;4.49;77.69;101277.58;207686;1297;140065;-68
2022/11/11 23:28:39;;;;;;;27.60;16.80;;;;;;;4.38;78.29;101280.59;210947;1290;141868;-71
2022/11/11 23:33:45;;;;;;;29.70;18.50;;;;;;;4.38;78.49;101287.98;210715;1292;140755;-69
2022/11/11 23:38:50;;;;;;;38.60;24.10;;;;;;;4.36;78.56;101288.13;210697;1292;140352;-70
2022/11/11 23:43:54;;;;;;;39.90;26.00;;;;;;;4.28;78.70;101293.39;210878;1291;141554;-70
2022/11/11 23:48:57;;;;;;;30.80;18.30;;;;;;;4.23;78.94;101291.49;210735;1291;222694;-68
2022/11/11 23:54:01;;;;;;;26.90;16.50;;;;;;;4.23;78.78;101289.75;210643;1289;140731;-70
2022/11/11 23:59:06;;;;;;;23.90;15.10;;;;;;;4.24;78.80;101295.79;210695;1292;141497;-71
